Time;durP1;ratioP1;P1;durP2;ratioP2;P2;SDS_P1;SDS_P2;PMS_P1;PMS_P2;Temp;Humidity;BMP_temperature;BMP_pressure;BME280_temperature;BME280_humidity;BME280_pressure;Samples;Min_cycle;Max_cycle;Signal;HPM_P1;HPM_P2
2021/07/22 00:01:45;;;;;;;4.67;2.30;;;;;;;17.78;61.78;99211.23;1706017;84;21039;-69
2021/07/22 00:04:11;;;;;;;6.20;2.05;;;;;;;17.75;61.90;99214.64;1719342;83;20995;-68
2021/07/22 00:06:37;;;;;;;;;;;;;;;17.71;62.00;99215.06;1732489;82;20999;-68
2021/07/22 00:09:04;;;;;;;4.37;2.20;;;;;;;17.67;62.08;99214.70;1708877;83;20112;-68
2021/07/22 00:11:30;;;;;;;;;;;;;;;17.62;62.36;99221.20;1732070;82;20955;-68
2021/07/22 00:13:56;;;;;;;4.50;1.67;;;;;;;17.63;62.38;99212.38;1711451;83;20111;-68
2021/07/22 00:16:23;;;;;;;6.78;2.22;;;;;;;17.52;62.63;99215.22;1729759;83;20951;-68
2021/07/22 00:18:50;;;;;;;3.62;2.10;;;;;;;17.43;62.95;99224.30;1710634;83;21534;-68
2021/07/22 00:21:16;;;;;;;;;;;;;;;17.40;63.19;99216.71;1731894;82;20960;-68
2021/07/22 00:23:44;;;;;;;4.25;1.80;;;;;;;17.38;63.37;99221.75;1729212;83;20123;-68
2021/07/22 00:26:10;;;;;;;;;;;;;;;17.36;63.39;99228.69;1713918;83;20979;-69
2021/07/22 00:28:37;;;;;;;5.95;2.30;;;;;;;17.35;63.37;99218.28;1729226;83;20130;-68
2021/07/22 00:31:05;;;;;;;;;;;;;;;17.22;63.72;99224.77;1716553;83;20953;-68
2021/07/22 00:33:31;;;;;;;6.87;2.22;;;;;;;17.18;63.96;99228.53;1729379;82;20098;-68
2021/07/22 00:35:58;;;;;;;6.20;2.10;;;;;;;17.09;64.44;99231.28;1729364;83;21580;-68
2021/07/22 00:38:25;;;;;;;7.08;2.20;;;;;;;17.11;64.56;99233.13;1710167;83;21037;-68
2021/07/22 00:40:53;;;;;;;9.95;2.42;;;;;;;17.13;64.53;99230.87;1710587;83;21638;-68
2021/07/22 00:43:20;;;;;;;4.60;2.30;;;;;;;17.11;64.59;99228.22;1729151;83;21076;-68
2021/07/22 00:45:47;;;;;;;;;;;;;;;17.07;64.70;99241.81;1731966;82;21035;-68
2021/07/22 00:48:13;;;;;;;7.30;2.12;;;;;;;17.03;64.85;99237.28;1710806;83;20115;-68
2021/07/22 00:50:40;;;;;;;3.98;2.05;;;;;;;16.97;64.90;99235.25;1729167;83;20997;-68
2021/07/22 00:53:06;;;;;;;;;;;;;;;16.96;64.99;99240.53;1713398;83;21019;-68
2021/07/22 00:55:34;;;;;;;5.12;2.37;;;;;;;16.90;65.14;99248.13;1729503;83;20103;-68
2021/07/22 00:58:00;;;;;;;;;;;;;;;16.77;65.55;99246.36;1725985;82;21115;-68
2021/07/22 01:00:28;;;;;;;3.98;2.10;;;;;;;16.77;65.63;99245.55;1713586;84;20398;-68
2021/07/22 01:02:54;;;;;;;4.97;2.30;;;;;;;16.73;65.80;99235.77;1713778;84;21590;-68
2021/07/22 01:05:21;;;;;;;6.28;2.40;;;;;;;16.75;65.87;99244.52;1701519;83;21006;-69
2021/07/22 01:07:47;;;;;;;;;;;;;;;16.72;65.91;99249.86;1717976;83;21072;-68
2021/07/22 01:10:15;;;;;;;6.37;2.35;;;;;;;16.66;66.10;99249.19;1713772;83;20151;-68
2021/07/22 01:12:42;;;;;;;6.80;2.40;;;;;;;16.62;66.33;99258.39;1713742;84;21573;-68
2021/07/22 01:15:09;;;;;;;;;;;;;;;16.64;66.44;99258.90;1716743;83;20966;-68
2021/07/22 01:17:45;;;;;;;4.42;2.27;;;;;;;16.63;66.40;99260.02;1703845;84;20390;-69
2021/07/22 01:20:18;;;;;;;5.30;1.98;;;;;;;16.50;66.75;99259.03;1693353;83;21008;-68
2021/07/22 01:22:46;;;;;;;4.70;2.02;;;;;;;16.49;66.94;99257.96;1695122;84;21027;-68
2021/07/22 01:25:13;;;;;;;7.53;2.45;;;;;;;16.52;66.92;99259.50;1640611;86;21534;-68
2021/07/22 01:27:42;;;;;;;6.45;2.52;;;;;;;16.56;66.88;99266.56;1713866;84;20992;-68
2021/07/22 01:30:11;;;;;;;3.35;2.00;;;;;;;16.54;66.99;99264.69;1713779;84;20972;-69
2021/07/22 01:32:38;;;;;;;5.85;2.37;;;;;;;16.51;67.12;99271.61;1702475;83;21474;-69
2021/07/22 01:35:06;;;;;;;5.20;2.02;;;;;;;16.48;67.24;99271.44;1701135;83;21508;-68
2021/07/22 01:37:33;;;;;;;6.67;2.40;;;;;;;16.50;67.28;99274.14;1701267;83;21144;-68
2021/07/22 01:40:02;;;;;;;5.30;1.98;;;;;;;16.50;67.30;99270.58;1678470;84;21464;-68
2021/07/22 01:42:31;;;;;;;6.17;2.30;;;;;;;16.41;67.55;99266.44;1713796;84;21017;-68
2021/07/22 01:44:58;;;;;;;10.48;2.45;;;;;;;16.37;67.71;99266.83;1704748;83;20986;-68
2021/07/22 01:47:24;;;;;;;7.37;2.20;;;;;;;16.41;67.62;99265.88;1716228;83;21455;-68
2021/07/22 01:49:51;;;;;;;5.25;2.30;;;;;;;16.43;67.60;99265.00;1713644;84;21041;-68
2021/07/22 01:52:18;;;;;;;5.05;2.17;;;;;;;16.37;67.76;99267.64;1698914;84;21451;-68
2021/07/22 01:54:46;;;;;;;8.58;2.83;;;;;;;16.31;67.87;99264.81;1685455;85;21016;-68
2021/07/22 01:57:14;;;;;;;4.72;2.40;;;;;;;16.26;67.98;99262.80;1685116;85;21625;-68
2021/07/22 01:59:42;;;;;;;5.80;2.20;;;;;;;16.28;67.96;99272.32;1694853;83;20984;-68
2021/07/22 02:02:10;;;;;;;6.58;2.70;;;;;;;16.26;68.02;99271.81;1691160;84;21036;-68
2021/07/22 02:04:39;;;;;;;7.20;2.45;;;;;;;16.22;68.24;99271.42;1684969;83;21015;-68
2021/07/22 02:07:07;;;;;;;4.25;2.40;;;;;;;16.13;68.48;99274.14;1719218;83;21677;-68
2021/07/22 02:09:35;;;;;;;8.43;2.75;;;;;;;16.07;68.68;99283.66;1685159;84;21070;-68
2021/07/22 02:12:02;;;;;;;4.28;2.47;;;;;;;16.05;68.74;99284.52;1718427;83;21597;-68
2021/07/22 02:14:29;;;;;;;5.50;2.22;;;;;;;16.07;68.57;99286.41;1701202;83;21845;-68
2021/07/22 02:16:57;;;;;;;3.95;2.55;;;;;;;16.03;68.46;99281.30;1719146;83;20996;-68
2021/07/22 02:19:23;;;;;;;6.50;2.40;;;;;;;15.98;68.66;99288.30;1718959;83;21001;-69
2021/07/22 02:21:52;;;;;;;5.60;2.52;;;;;;;15.95;68.79;99291.68;1717886;83;21035;-68
2021/07/22 02:24:18;;;;;;;;;;;;;;;15.96;68.63;99291.13;1693092;85;21074;-68
2021/07/22 02:26:46;;;;;;;5.47;2.47;;;;;;;15.96;68.53;99296.05;1705701;83;20120;-68
2021/07/22 02:29:13;;;;;;;5.15;2.83;;;;;;;15.84;68.85;99297.20;1719354;83;20994;-68
2021/07/22 02:31:40;;;;;;;7.47;2.70;;;;;;;15.80;68.92;99288.02;1695987;84;20961;-68
2021/07/22 02:34:08;;;;;;;4.85;3.00;;;;;;;15.83;68.74;99286.00;1688728;83;21027;-68
2021/07/22 02:36:34;;;;;;;;;;;;;;;15.79;68.52;99291.31;1709715;83;21000;-68
2021/07/22 02:39:08;;;;;;;6.83;2.05;;;;;;;15.73;68.66;99284.33;1700870;83;20102;-68
2021/07/22 02:41:35;;;;;;;5.25;1.95;;;;;;;15.63;68.91;99290.65;1700770;83;20956;-68
2021/07/22 02:44:04;;;;;;;4.17;2.10;;;;;;;15.70;68.84;99295.13;1719250;83;20980;-68
2021/07/22 02:46:31;;;;;;;6.60;2.70;;;;;;;15.70;68.75;99291.01;1671205;85;20967;-68
2021/07/22 02:49:00;;;;;;;5.33;2.30;;;;;;;15.63;68.92;99299.70;1641535;85;21116;-68
2021/07/22 02:51:28;;;;;;;5.47;2.40;;;;;;;15.65;68.85;99310.37;1637605;86;21004;-68
2021/07/22 02:53:55;;;;;;;5.95;2.20;;;;;;;15.71;68.49;99305.80;1679200;85;21066;-68
2021/07/22 02:56:23;;;;;;;7.55;2.37;;;;;;;15.70;68.47;99304.73;1673849;85;21014;-69
2021/07/22 02:58:50;;;;;;;6.92;2.47;;;;;;;15.67;68.59;99314.97;1650638;85;20999;-68
2021/07/22 03:01:17;;;;;;;7.10;2.67;;;;;;;15.71;68.58;99311.84;1682562;85;21419;-68
2021/07/22 03:03:45;;;;;;;4.75;2.35;;;;;;;15.78;68.21;99306.16;1683255;85;21134;-68
2021/07/22 03:06:15;;;;;;;5.90;2.30;;;;;;;15.76;68.15;99313.09;1683773;85;21056;-68
2021/07/22 03:08:45;;;;;;;7.12;2.55;;;;;;;15.72;68.13;99317.03;1684075;85;21672;-69
2021/07/22 03:11:11;;;;;;;5.22;2.25;;;;;;;15.75;67.99;99320.52;1681741;85;21016;-69
2021/07/22 03:13:38;;;;;;;4.28;2.27;;;;;;;15.82;67.67;99327.73;1649010;87;21075;-69
2021/07/22 03:16:07;;;;;;;4.92;2.20;;;;;;;15.79;67.58;99318.76;1642685;87;21152;-69
2021/07/22 03:18:38;;;;;;;5.50;2.42;;;;;;;15.74;67.75;99335.34;1668736;85;21889;-69
2021/07/22 03:21:05;;;;;;;4.42;2.20;;;;;;;15.80;67.48;99340.16;1681179;85;20984;-69
2021/07/22 03:23:33;;;;;;;5.78;2.55;;;;;;;15.88;67.41;99335.25;1681545;85;21473;-69
2021/07/22 03:25:59;;;;;;;5.42;2.30;;;;;;;15.94;67.38;99337.53;1652625;85;20984;-69
2021/07/22 03:28:28;;;;;;;6.55;2.20;;;;;;;16.00;67.13;99336.03;1643339;85;21130;-69
2021/07/22 03:31:00;;;;;;;5.62;1.98;;;;;;;16.05;66.99;99339.43;1722080;83;20971;-69
2021/07/22 03:33:37;;;;;;;3.80;2.27;;;;;;;16.17;66.57;99343.77;1722301;83;21596;-69
2021/07/22 03:36:05;;;;;;;6.83;1.95;;;;;;;16.28;66.14;99342.36;1700854;83;20944;-69
2021/07/22 03:38:33;;;;;;;4.92;2.27;;;;;;;16.30;65.87;99341.47;1704161;83;21059;-69
2021/07/22 03:41:01;;;;;;;8.33;2.10;;;;;;;16.35;65.77;99344.63;1681982;83;21008;-69
2021/07/22 03:43:28;;;;;;;5.60;1.98;;;;;;;16.42;65.84;99344.42;1723862;83;21017;-69
2021/07/22 03:45:58;;;;;;;4.92;1.60;;;;;;;16.58;65.42;99335.17;1724056;83;20995;-68
2021/07/22 03:48:27;;;;;;;3.65;1.70;;;;;;;16.83;64.79;99338.52;1723950;83;21084;-69
2021/07/22 03:50:54;;;;;;;5.47;2.30;;;;;;;17.01;64.01;99344.83;1724031;83;20964;-69
2021/07/22 03:53:20;;;;;;;4.62;2.30;;;;;;;17.12;63.89;99343.38;1723946;83;21048;-69
2021/07/22 03:55:48;;;;;;;4.15;2.20;;;;;;;17.34;62.89;99341.02;1721590;83;20969;-69
2021/07/22 03:58:34;;;;;;;4.33;1.90;;;;;;;17.49;62.48;99345.21;1720076;83;21058;-68
2021/07/22 04:01:05;;;;;;;3.30;1.85;;;;;;;17.60;61.78;99345.95;1698777;83;20985;-69
2021/07/22 04:03:35;;;;;;;4.15;1.98;;;;;;;17.66;61.62;99357.02;1674389;84;21063;-68
2021/07/22 04:06:01;;;;;;;5.40;1.72;;;;;;;17.78;61.20;99353.01;1706393;84;21017;-68
2021/07/22 04:08:27;;;;;;;4.95;2.10;;;;;;;17.87;60.78;99355.19;1713748;84;21096;-69
2021/07/22 04:10:56;;;;;;;5.37;2.15;;;;;;;18.01;60.49;99360.48;1707266;83;21079;-69
2021/07/22 04:13:24;;;;;;;9.33;2.00;;;;;;;18.12;60.17;99359.55;1709105;84;21598;-69
2021/07/22 04:15:53;;;;;;;4.55;1.82;;;;;;;18.03;59.06;99364.30;1712293;83;20988;-70
2021/07/22 04:18:21;;;;;;;7.08;2.00;;;;;;;17.84;59.38;99368.23;1712208;84;21087;-69
2021/07/22 04:21:07;;;;;;;4.50;1.77;;;;;;;17.68;59.58;99366.31;1692758;83;20999;-69
2021/07/22 04:23:36;;;;;;;6.15;1.98;;;;;;;17.56;60.37;99367.54;1713302;83;21290;-68
2021/07/22 04:26:16;;;;;;;9.75;1.87;;;;;;;17.63;60.57;99366.50;1713597;83;21000;-68
2021/07/22 04:28:47;;;;;;;;;;;;;;;17.82;60.18;99376.56;1702326;84;21596;-68
2021/07/22 04:31:15;;;;;;;;;;;;;;;18.04;59.59;99372.77;1715576;84;20159;-68
2021/07/22 04:34:00;;;;;;;4.05;1.55;;;;;;;18.20;59.00;99363.66;1713983;84;20402;-69
2021/07/22 04:36:31;;;;;;;4.05;1.47;;;;;;;18.31;58.61;99367.66;1701405;83;20997;-70
2021/07/22 04:39:00;;;;;;;3.17;1.60;;;;;;;18.38;58.18;99366.57;1686763;84;21028;-70
2021/07/22 04:41:44;;;;;;;2.90;1.50;;;;;;;18.31;57.75;99368.23;1714006;84;21087;-69
2021/07/22 04:44:31;;;;;;;7.40;2.02;;;;;;;18.20;58.04;99373.86;1706475;84;21500;-70
2021/07/22 04:47:14;;;;;;;4.50;1.72;;;;;;;18.31;58.34;99363.53;1713165;83;21047;-70
2021/07/22 04:49:59;;;;;;;3.17;1.60;;;;;;;18.60;57.80;99372.97;1713847;84;20991;-69
2021/07/22 04:52:27;;;;;;;6.75;1.90;;;;;;;18.64;56.33;99366.44;1713402;83;21040;-69
2021/07/22 04:54:55;;;;;;;3.62;1.50;;;;;;;18.64;56.53;99365.62;1713624;83;21591;-69
2021/07/22 04:57:23;;;;;;;6.37;1.55;;;;;;;18.72;56.32;99367.53;1702560;84;21038;-69
2021/07/22 04:59:49;;;;;;;4.83;1.40;;;;;;;18.67;55.94;99368.52;1713631;83;21003;-68
2021/07/22 05:02:18;;;;;;;3.65;1.65;;;;;;;18.62;56.09;99363.78;1703713;84;21050;-69
2021/07/22 05:04:45;;;;;;;5.40;1.57;;;;;;;18.71;56.33;99368.66;1713656;84;21631;-69
2021/07/22 05:07:12;;;;;;;6.90;1.72;;;;;;;18.92;56.57;99367.33;1703650;84;21057;-69
2021/07/22 05:09:39;;;;;;;3.52;1.50;;;;;;;19.17;55.93;99365.73;1713773;84;21042;-69
2021/07/22 05:12:10;;;;;;;6.40;1.55;;;;;;;19.33;55.38;99359.84;1711796;83;21156;-68
2021/07/22 05:14:57;;;;;;;3.85;1.40;;;;;;;19.50;54.41;99370.50;1712142;84;21063;-68
2021/07/22 05:17:42;;;;;;;3.77;1.75;;;;;;;19.54;54.71;99368.69;1705899;84;21084;-69
2021/07/22 05:20:22;;;;;;;5.78;1.55;;;;;;;19.70;54.45;99364.93;1658307;84;21574;-68
2021/07/22 05:23:07;;;;;;;8.60;2.17;;;;;;;19.70;53.62;99359.41;1713692;84;21063;-68
2021/07/22 05:25:36;;;;;;;6.47;1.47;;;;;;;19.66;54.08;99368.73;1662110;84;21590;-68
2021/07/22 05:28:14;;;;;;;7.15;1.57;;;;;;;19.83;54.14;99367.17;1711216;83;21059;-68
2021/07/22 05:30:57;;;;;;;5.17;1.90;;;;;;;20.08;53.60;99368.83;1712946;83;20989;-67
2021/07/22 05:33:26;;;;;;;4.72;1.90;;;;;;;20.16;52.72;99379.53;1704958;84;21044;-68
2021/07/22 05:35:54;;;;;;;4.90;1.80;;;;;;;20.10;53.12;99372.05;1702584;84;21918;-68
2021/07/22 05:38:22;;;;;;;3.33;1.60;;;;;;;20.09;52.90;99377.33;1671208;83;21045;-68
2021/07/22 05:40:49;;;;;;;4.28;1.50;;;;;;;20.05;53.26;99366.73;1699049;84;21534;-69
2021/07/22 05:43:16;;;;;;;4.12;1.65;;;;;;;20.10;53.37;99369.28;1685432;84;21122;-69
2021/07/22 05:45:43;;;;;;;5.53;1.80;;;;;;;20.15;53.48;99375.17;1685250;85;21672;-68
2021/07/22 05:48:10;;;;;;;2.25;1.30;;;;;;;20.17;53.70;99381.95;1675536;85;21601;-68
2021/07/22 05:50:37;;;;;;;3.47;1.70;;;;;;;20.32;53.42;99385.47;1658882;85;20987;-68
2021/07/22 05:53:03;;;;;;;3.75;1.40;;;;;;;20.40;53.35;99381.55;1714330;84;21041;-68
2021/07/22 05:55:30;;;;;;;5.08;1.67;;;;;;;20.51;53.09;99384.09;1703947;84;21489;-68
2021/07/22 05:57:56;;;;;;;7.35;1.70;;;;;;;20.63;52.34;99376.59;1714077;84;21057;-68
2021/07/22 06:00:23;;;;;;;4.05;2.00;;;;;;;20.76;52.71;99376.02;1713930;83;21051;-68
2021/07/22 06:02:50;;;;;;;6.03;1.77;;;;;;;20.84;52.07;99377.83;1703800;84;21068;-69
2021/07/22 06:05:19;;;;;;;4.83;1.72;;;;;;;20.85;52.41;99383.59;1703727;84;21067;-68
2021/07/22 06:07:46;;;;;;;6.55;1.90;;;;;;;20.99;52.77;99386.80;1703757;84;21103;-69
2021/07/22 06:10:13;;;;;;;5.40;1.70;;;;;;;21.28;51.96;99378.80;1713644;84;21097;-69
2021/07/22 06:12:41;;;;;;;5.90;1.80;;;;;;;21.39;51.89;99379.11;1713956;83;21032;-68
2021/07/22 06:15:10;;;;;;;3.58;1.30;;;;;;;21.41;51.31;99381.75;1714033;84;21051;-69
2021/07/22 06:17:37;;;;;;;6.25;1.67;;;;;;;21.47;52.34;99385.87;1711627;83;21053;-68
2021/07/22 06:20:08;;;;;;;6.37;1.45;;;;;;;21.55;52.29;99394.61;1710575;84;21044;-68
2021/07/22 06:22:35;;;;;;;4.90;1.50;;;;;;;21.63;51.62;99377.62;1713964;84;21051;-68
2021/07/22 06:25:03;;;;;;;4.53;1.57;;;;;;;21.80;51.79;99385.61;1713723;84;21041;-68
2021/07/22 06:27:30;;;;;;;4.85;1.77;;;;;;;21.86;51.22;99385.56;1674435;85;21107;-68
2021/07/22 06:30:02;;;;;;;5.67;1.85;;;;;;;22.02;52.09;99386.45;1704532;84;21028;-68
2021/07/22 06:32:28;;;;;;;4.72;1.60;;;;;;;22.20;50.51;99389.67;1713781;84;21674;-68
2021/07/22 06:34:55;;;;;;;4.65;1.92;;;;;;;22.21;50.05;99387.14;1714013;84;21033;-68
2021/07/22 06:37:22;;;;;;;4.10;1.70;;;;;;;22.19;50.68;99395.80;1714093;84;21042;-68
2021/07/22 06:39:50;;;;;;;5.20;1.52;;;;;;;22.35;50.38;99390.27;1701887;84;21483;-68
2021/07/22 06:42:16;;;;;;;4.62;1.60;;;;;;;22.51;50.47;99399.95;1713925;83;21020;-68
2021/07/22 06:44:43;;;;;;;5.65;1.80;;;;;;;22.61;49.89;99398.83;1713994;84;21000;-68
2021/07/22 06:47:09;;;;;;;3.83;1.35;;;;;;;22.62;48.82;99403.80;1703915;84;21055;-68
2021/07/22 06:49:35;;;;;;;7.70;1.77;;;;;;;22.53;49.45;99408.13;1712540;83;21045;-68
2021/07/22 06:52:03;;;;;;;4.00;1.62;;;;;;;22.50;49.04;99399.14;1714340;84;21551;-68
2021/07/22 06:54:29;;;;;;;4.50;1.65;;;;;;;22.53;49.48;99389.32;1702695;83;21025;-68
2021/07/22 06:56:57;;;;;;;6.05;1.57;;;;;;;22.52;50.01;99396.02;1716074;83;21040;-68
2021/07/22 06:59:23;;;;;;;4.92;1.70;;;;;;;22.55;49.78;99392.53;1713873;83;21762;-68
2021/07/22 07:01:51;;;;;;;5.37;1.70;;;;;;;22.58;50.28;99397.35;1712949;84;21049;-69
2021/07/22 07:04:17;;;;;;;7.47;1.87;;;;;;;22.50;49.38;99395.56;1675949;84;21051;-69
2021/07/22 07:06:43;;;;;;;6.50;2.10;;;;;;;22.39;50.32;99402.23;1706479;84;21059;-68
2021/07/22 07:09:11;;;;;;;4.33;1.57;;;;;;;22.53;49.93;99401.80;1714406;84;21049;-68
2021/07/22 07:11:37;;;;;;;2.77;1.75;;;;;;;22.68;49.90;99399.03;1713290;84;21035;-68
2021/07/22 07:14:03;;;;;;;5.83;1.80;;;;;;;22.83;50.21;99402.13;1712626;84;21558;-68
2021/07/22 07:16:30;;;;;;;5.58;1.90;;;;;;;23.00;49.40;99405.32;1714037;84;21090;-68
2021/07/22 07:18:56;;;;;;;3.52;1.70;;;;;;;23.02;49.51;99399.42;1714258;84;21079;-68
2021/07/22 07:21:22;;;;;;;5.33;1.60;;;;;;;23.06;48.36;99398.31;1713776;84;21055;-68
2021/07/22 07:23:50;;;;;;;8.10;1.60;;;;;;;23.07;49.25;99399.92;1713640;84;21015;-68
2021/07/22 07:26:16;;;;;;;5.58;1.80;;;;;;;23.18;48.53;99400.16;1704273;84;21067;-67
2021/07/22 07:28:42;;;;;;;3.95;1.80;;;;;;;23.18;48.02;99407.11;1703379;84;21073;-67
2021/07/22 07:31:09;;;;;;;5.10;1.80;;;;;;;23.16;48.39;99401.94;1714075;84;21515;-67
2021/07/22 07:33:35;;;;;;;4.05;1.98;;;;;;;23.12;48.34;99405.21;1714128;84;21106;-67
2021/07/22 07:36:05;;;;;;;6.92;1.95;;;;;;;23.24;49.13;99402.86;1714004;84;21076;-68
2021/07/22 07:38:31;;;;;;;4.22;2.05;;;;;;;23.35;49.05;99409.45;1685126;85;21095;-68
2021/07/22 07:40:58;;;;;;;5.85;1.82;;;;;;;23.35;49.05;99409.45;1698080;83;20993;-67
2021/07/22 07:43:24;;;;;;;3.75;1.65;;;;;;;23.33;49.00;99404.86;1706498;84;21044;-68
2021/07/22 07:45:51;;;;;;;5.67;2.27;;;;;;;23.43;49.08;99411.25;1713123;84;21515;-68
2021/07/22 07:48:18;;;;;;;4.67;1.77;;;;;;;23.59;49.25;99414.78;1703969;84;21069;-68
2021/07/22 07:50:44;;;;;;;7.08;1.60;;;;;;;23.67;48.25;99415.70;1709032;84;21090;-67
2021/07/22 07:53:18;;;;;;;3.02;1.55;;;;;;;23.58;47.29;99414.55;1712795;84;21052;-67
2021/07/22 07:55:46;;;;;;;6.95;1.70;;;;;;;23.54;48.04;99408.12;1713897;84;21047;-67
2021/07/22 07:58:13;;;;;;;4.53;1.90;;;;;;;23.47;48.05;99410.75;1708232;84;21060;-69
2021/07/22 08:00:39;;;;;;;3.55;1.90;;;;;;;23.45;47.99;99405.34;1713277;83;21538;-68
2021/07/22 08:03:08;;;;;;;5.37;1.65;;;;;;;23.47;48.19;99407.16;1710706;84;21214;-68
2021/07/22 08:05:38;;;;;;;7.28;1.80;;;;;;;23.59;48.53;99407.84;1713570;83;21130;-69
2021/07/22 08:08:06;;;;;;;4.30;1.50;;;;;;;23.76;48.13;99400.44;1714159;84;21572;-69
2021/07/22 08:10:32;;;;;;;4.10;1.55;;;;;;;23.90;47.85;99403.27;1714192;84;20960;-69
2021/07/22 08:13:06;;;;;;;5.10;1.80;;;;;;;23.91;47.00;99404.30;1714031;84;21535;-69
2021/07/22 08:15:32;;;;;;;5.30;1.57;;;;;;;23.73;48.27;99404.53;1714186;84;21031;-69
2021/07/22 08:17:59;;;;;;;3.95;1.70;;;;;;;23.89;48.92;99400.25;1714071;84;21060;-69
2021/07/22 08:20:25;;;;;;;4.37;1.65;;;;;;;23.89;48.92;99400.25;1713922;84;21021;-69
2021/07/22 08:22:52;;;;;;;5.50;1.65;;;;;;;24.10;47.27;99400.07;1703887;84;21074;-69
2021/07/22 08:25:18;;;;;;;5.08;1.80;;;;;;;24.10;47.27;99400.07;1713946;84;21086;-69
2021/07/22 08:27:45;;;;;;;4.15;1.57;;;;;;;23.93;47.46;99402.52;1704070;84;21005;-69
2021/07/22 08:30:13;;;;;;;6.67;1.55;;;;;;;23.52;48.35;99415.22;1702890;83;21053;-69
2021/07/22 08:32:40;;;;;;;4.58;1.60;;;;;;;23.52;48.35;99415.22;1719570;83;21037;-69
2021/07/22 08:35:07;;;;;;;3.35;1.52;;;;;;;23.54;48.86;99405.34;1719622;83;21041;-68
2021/07/22 08:37:35;;;;;;;7.00;2.00;;;;;;;23.66;48.18;99395.48;1719646;83;21041;-69
2021/07/22 08:40:04;;;;;;;4.65;1.30;;;;;;;23.85;48.75;99406.33;1717373;83;21023;-69
2021/07/22 08:42:35;;;;;;;5.75;1.80;;;;;;;23.94;48.02;99408.31;1714386;84;21079;-69
2021/07/22 08:45:03;;;;;;;5.80;1.82;;;;;;;24.02;47.13;99394.77;1714055;84;21091;-69
2021/07/22 08:47:29;;;;;;;3.40;1.77;;;;;;;24.13;46.94;99409.09;1703973;84;21084;-69
2021/07/22 08:49:56;;;;;;;2.95;1.50;;;;;;;24.13;46.94;99409.09;1713831;84;21594;-69
2021/07/22 08:52:22;;;;;;;5.87;1.37;;;;;;;24.33;46.50;99402.09;1713952;84;21124;-69
2021/07/22 08:54:49;;;;;;;3.87;1.60;;;;;;;24.58;45.51;99402.73;1714076;84;21531;-69
2021/07/22 08:57:17;;;;;;;5.40;1.57;;;;;;;24.58;45.51;99402.73;1713859;84;21044;-69
2021/07/22 08:59:43;;;;;;;2.60;1.20;;;;;;;24.35;45.38;99403.91;1714201;83;21543;-69
2021/07/22 09:02:17;;;;;;;3.67;1.75;;;;;;;24.18;45.62;99410.77;1714148;84;21034;-69
2021/07/22 09:04:57;;;;;;;4.50;1.50;;;;;;;;;;1714146;84;21084;-69
2021/07/22 09:07:24;;;;;;;2.87;1.72;;;;;;;24.13;44.83;99414.66;1713992;83;21058;-69
2021/07/22 09:10:10;;;;;;;5.30;1.90;;;;;;;24.32;45.47;99407.44;1713997;84;21048;-69
2021/07/22 09:12:40;;;;;;;1.95;1.47;;;;;;;24.32;45.47;99407.44;1714033;83;21570;-69
2021/07/22 09:15:10;;;;;;;5.10;1.60;;;;;;;24.04;45.05;99411.28;1714038;84;21079;-69
2021/07/22 09:17:36;;;;;;;3.22;1.67;;;;;;;23.79;45.73;99408.03;1714106;84;21052;-69
2021/07/22 09:20:11;;;;;;;2.65;1.47;;;;;;;23.81;46.20;99406.87;1714233;84;21512;-69
2021/07/22 09:22:41;;;;;;;3.77;1.30;;;;;;;23.97;43.46;99404.20;1704683;84;21041;-69
2021/07/22 09:25:09;;;;;;;3.22;1.55;;;;;;;24.12;43.13;99413.03;1714199;84;21052;-69
2021/07/22 09:27:43;;;;;;;4.15;1.72;;;;;;;24.22;41.82;99411.06;1714283;84;21046;-69
2021/07/22 09:30:19;;;;;;;4.83;1.70;;;;;;;24.25;42.93;99400.58;1714096;84;21015;-68
2021/07/22 09:32:49;;;;;;;2.87;1.57;;;;;;;24.18;43.04;99413.55;1714188;84;21047;-69
2021/07/22 09:35:17;;;;;;;3.77;1.57;;;;;;;23.58;43.10;99410.97;1714252;84;21019;-69
2021/07/22 09:37:46;;;;;;;3.65;1.37;;;;;;;23.58;43.10;99410.97;1703787;83;21556;-69
2021/07/22 09:40:30;;;;;;;4.87;1.30;;;;;;;23.43;43.19;99409.87;1719561;83;21543;-69
2021/07/22 09:42:56;;;;;;;2.27;1.20;;;;;;;23.46;42.43;99403.58;1719314;83;21112;-68
2021/07/22 09:45:30;;;;;;;4.15;1.35;;;;;;;23.70;41.75;99401.11;1719782;83;21599;-68
2021/07/22 09:48:09;;;;;;;3.25;1.50;;;;;;;23.80;40.50;99411.63;1717436;83;21623;-68
2021/07/22 09:50:43;;;;;;;6.22;1.65;;;;;;;23.67;41.00;99408.18;1714124;84;21063;-68
2021/07/22 09:53:12;;;;;;;2.92;1.32;;;;;;;23.53;41.83;99418.20;1713935;84;21036;-68
2021/07/22 09:55:42;;;;;;;4.28;1.55;;;;;;;23.40;42.68;99416.70;1714334;84;21522;-68
2021/07/22 09:58:10;;;;;;;5.15;1.65;;;;;;;23.46;42.75;99412.49;1714026;84;20992;-68
2021/07/22 10:00:46;;;;;;;3.08;1.47;;;;;;;23.61;42.18;99407.45;1714005;83;21080;-68
2021/07/22 10:03:14;;;;;;;2.77;1.42;;;;;;;23.66;41.57;99403.00;1690301;84;21105;-68
2021/07/22 10:05:54;;;;;;;5.22;1.70;;;;;;;23.49;41.86;99414.56;1714133;84;21037;-70
2021/07/22 10:08:22;;;;;;;4.58;1.40;;;;;;;23.34;42.51;99413.42;1713766;83;21056;-68
2021/07/22 10:10:52;;;;;;;2.02;1.20;;;;;;;23.39;43.10;99409.53;1714113;84;21469;-68
2021/07/22 10:13:36;;;;;;;4.22;1.40;;;;;;;23.56;41.22;99405.77;1713939;83;21083;-68
2021/07/22 10:16:07;;;;;;;3.45;1.60;;;;;;;23.82;41.91;99401.51;1713973;84;21059;-69
2021/07/22 10:18:33;;;;;;;2.70;1.60;;;;;;;24.09;40.53;99397.67;1712688;83;21565;-69
2021/07/22 10:21:00;;;;;;;4.05;1.50;;;;;;;24.34;40.84;99389.80;1713977;84;21049;-68
2021/07/22 10:23:26;;;;;;;4.10;1.40;;;;;;;24.58;39.70;99394.39;1703818;84;21152;-68
2021/07/22 10:25:53;;;;;;;3.08;1.37;;;;;;;24.70;38.97;99405.87;1714061;84;21540;-68
2021/07/22 10:28:19;;;;;;;3.25;1.42;;;;;;;24.72;38.29;99396.00;1713900;84;21109;-68
2021/07/22 10:30:46;;;;;;;3.27;1.40;;;;;;;24.68;38.44;99400.70;1714056;84;21059;-69
2021/07/22 10:33:12;;;;;;;2.75;1.20;;;;;;;24.68;38.44;99400.70;1713902;84;21064;-68
2021/07/22 10:35:39;;;;;;;2.45;1.42;;;;;;;24.75;38.53;99400.02;1714152;84;21040;-68
2021/07/22 10:38:14;;;;;;;4.47;1.67;;;;;;;24.88;39.18;99405.60;1713811;84;21084;-68
2021/07/22 10:40:50;;;;;;;3.87;1.50;;;;;;;25.01;37.69;99395.06;1714493;84;20974;-68
2021/07/22 10:43:38;;;;;;;;;;;;;;;25.09;37.52;99404.52;1716607;84;21013;-68
2021/07/22 10:46:12;;;;;;;;;;;;;;;25.04;38.50;99402.08;1716645;84;20120;-68
2021/07/22 10:48:41;;;;;;;3.92;1.50;;;;;;;24.74;38.97;99401.98;1713898;84;20095;-68
2021/07/22 10:51:14;;;;;;;2.00;1.17;;;;;;;24.45;39.18;99406.87;1713812;84;21063;-69
2021/07/22 10:53:54;;;;;;;3.40;1.47;;;;;;;24.35;39.85;99406.69;1713192;84;21593;-68
2021/07/22 10:56:51;;;;;;;3.42;1.20;;;;;;;24.24;39.90;99400.94;1714048;84;21036;-68
2021/07/22 10:59:17;;;;;;;4.05;1.50;;;;;;;24.24;39.90;99400.94;1714102;84;21036;-68
2021/07/22 11:01:49;;;;;;;2.50;1.20;;;;;;;24.04;39.87;99410.48;1713827;83;21121;-68
2021/07/22 11:04:39;;;;;;;3.90;1.52;;;;;;;23.84;40.67;99409.72;1713840;84;21068;-68
2021/07/22 11:07:07;;;;;;;2.83;1.50;;;;;;;23.61;41.35;99409.66;1685275;85;21139;-68
2021/07/22 11:09:46;;;;;;;2.65;1.57;;;;;;;23.49;41.58;99406.23;1685255;85;21087;-68
2021/07/22 11:15:54;;;;;;;3.22;1.62;;;;;;;23.81;42.38;99392.98;1801763;79;22834;-68
2021/07/22 11:18:43;;;;;;;2.60;1.50;;;;;;;23.97;42.01;99388.11;1754631;81;21059;-69
2021/07/22 11:21:34;;;;;;;3.52;1.50;;;;;;;24.28;41.24;99396.25;1714876;83;21069;-68
2021/07/22 11:24:07;;;;;;;2.60;1.50;;;;;;;24.48;39.42;99398.39;1678993;85;21620;-68
2021/07/22 11:26:39;;;;;;;3.47;1.37;;;;;;;24.47;39.06;99402.34;1683700;85;21027;-68
2021/07/22 11:29:07;;;;;;;3.22;1.37;;;;;;;24.52;39.67;99394.47;1683620;85;21076;-68
2021/07/22 11:31:48;;;;;;;5.22;2.08;;;;;;;24.59;38.17;99386.23;1684598;84;20976;-68
2021/07/22 11:34:29;;;;;;;2.75;1.40;;;;;;;24.54;38.32;99384.37;1678501;85;21620;-68
2021/07/22 11:36:58;;;;;;;6.22;1.57;;;;;;;24.55;38.72;99390.16;1653223;85;21079;-68
2021/07/22 11:39:39;;;;;;;2.95;1.12;;;;;;;24.54;39.02;99398.28;1678784;85;21086;-68
2021/07/22 11:42:10;;;;;;;3.17;1.10;;;;;;;24.49;38.63;99399.97;1678879;85;21138;-68
2021/07/22 11:44:37;;;;;;;2.58;1.20;;;;;;;24.05;35.87;99406.53;1678521;84;21549;-68
2021/07/22 11:47:15;;;;;;;2.67;1.10;;;;;;;24.05;35.87;99406.53;1678945;85;21102;-68
2021/07/22 11:49:42;;;;;;;2.05;1.30;;;;;;;23.90;36.04;99403.27;1678872;85;21537;-68
2021/07/22 11:52:08;;;;;;;5.78;1.15;;;;;;;23.91;36.55;99395.95;1679458;84;21126;-68